Time;durP1;ratioP1;P1;durP2;ratioP2;P2;SDS_P1;SDS_P2;PMS_P1;PMS_P2;Temp;Humidity;BMP_temperature;BMP_pressure;BME280_temperature;BME280_humidity;BME280_pressure;Samples;Min_cycle;Max_cycle;Signal;HPM_P1;HPM_P2
2022/06/02 00:02:01;;;;;;;4.97;0.90;;;14.00;92.20;;;13.71;65.67;97362.31;4966903;28;20050;-48
2022/06/02 00:04:54;;;;;;;1.23;0.80;;;14.00;92.10;;;13.60;68.01;97346.09;4971742;28;20478;-49
2022/06/02 00:07:47;;;;;;;2.72;1.05;;;14.00;92.50;;;13.71;68.37;97367.59;4969087;28;20497;-47
2022/06/02 00:10:30;;;;;;;1.45;1.00;;;14.00;93.20;;;13.68;68.67;97363.34;4955493;28;20736;-49
2022/06/02 00:13:09;;;;;;;1.83;0.90;;;14.00;93.30;;;13.66;68.25;97367.00;4968957;28;20133;-49
2022/06/02 00:15:45;;;;;;;1.70;0.82;;;14.00;93.20;;;13.48;67.86;97344.94;4974832;28;20154;-49
2022/06/02 00:18:24;;;;;;;0.90;0.80;;;13.90;93.10;;;13.58;67.82;97366.50;4984181;28;20037;-47
2022/06/02 00:21:35;;;;;;;1.83;0.80;;;13.90;93.10;;;13.51;67.84;97372.13;4968799;28;20034;-47
2022/06/02 00:24:18;;;;;;;1.30;0.75;;;13.80;93.10;;;13.47;67.75;97373.19;4944361;28;20034;-49
2022/06/02 00:27:04;;;;;;;2.13;0.82;;;13.80;93.10;;;13.47;66.20;97362.59;4960419;28;20321;-48
2022/06/02 00:29:51;;;;;;;1.08;0.90;;;13.80;92.80;;;13.44;65.86;97370.72;4956139;28;20034;-48
2022/06/02 00:32:50;;;;;;;1.33;0.73;;;13.70;92.50;;;13.43;66.04;97370.78;4964271;28;20030;-46
2022/06/02 00:35:25;;;;;;;3.13;1.00;;;13.70;92.60;;;13.36;65.15;97368.41;4965812;28;20038;-47
2022/06/02 00:38:03;;;;;;;1.27;0.68;;;13.70;92.30;;;13.31;64.79;97370.44;4966465;28;20186;-45
2022/06/02 00:40:32;;;;;;;2.65;0.80;;;13.70;92.20;;;13.25;65.56;97359.25;4964241;28;20690;-47
2022/06/02 00:43:13;;;;;;;3.80;0.90;;;13.60;92.30;;;13.26;66.39;97364.50;4966819;28;20577;-46
2022/06/02 00:45:45;;;;;;;1.02;0.70;;;13.60;92.60;;;13.21;66.47;97371.78;4970379;28;20517;-49
2022/06/02 00:48:25;;;;;;;2.88;0.80;;;13.60;92.70;;;13.16;66.26;97361.41;4968306;28;20038;-48
2022/06/02 00:51:05;;;;;;;1.17;0.70;;;13.50;92.60;;;13.12;66.95;97370.44;4987304;28;20050;-47
2022/06/02 01:00:07;;;;;;;1.77;1.10;;;13.40;93.20;;;13.01;68.35;97366.56;4962384;28;20093;-49
2022/06/02 01:03:08;;;;;;;5.05;0.93;;;13.30;93.30;;;12.97;68.25;97366.75;5002635;23;20520;-47
2022/06/02 01:06:00;;;;;;;1.60;0.80;;;13.30;93.40;;;12.92;68.31;97378.44;5014230;28;20102;-45
2022/06/02 01:09:06;;;;;;;1.80;0.90;;;13.30;93.40;;;12.91;68.53;97380.25;5020127;28;20033;-43
2022/06/02 01:11:49;;;;;;;1.00;0.60;;;13.30;93.60;;;12.88;68.67;97383.03;5017253;28;20041;-44
2022/06/02 01:14:45;;;;;;;1.25;0.80;;;13.20;93.70;;;12.84;68.65;97380.59;5017802;28;20448;-44
2022/06/02 01:17:50;;;;;;;2.67;1.00;;;13.20;93.70;;;12.78;68.86;97379.09;5021437;28;20124;-43
2022/06/02 01:20:29;;;;;;;1.42;0.90;;;13.10;93.60;;;12.74;70.39;97380.16;5021118;28;20033;-44
2022/06/02 01:23:52;;;;;;;1.83;0.80;;;13.10;94.10;;;12.68;70.64;97386.59;5020328;28;20056;-44
2022/06/02 01:26:52;;;;;;;0.93;0.60;;;13.10;94.20;;;12.67;70.68;97384.00;5016836;28;20033;-43
2022/06/02 01:29:59;;;;;;;0.73;0.68;;;13.00;94.40;;;12.66;71.17;97383.16;5027716;28;20353;-48
2022/06/02 01:32:40;;;;;;;2.60;0.90;;;13.00;94.60;;;12.63;72.49;97382.44;5021092;28;20064;-44
2022/06/02 01:35:16;;;;;;;2.50;0.80;;;13.00;95.00;;;12.60;72.21;97389.59;5033538;28;20044;-43
2022/06/02 01:38:01;;;;;;;0.70;0.65;;;12.90;95.00;;;12.57;72.32;97386.22;5014287;28;20032;-46
2022/06/02 01:40:41;;;;;;;2.08;0.85;;;12.90;95.00;;;12.55;72.64;97391.59;5017219;28;20234;-44
2022/06/02 01:43:20;;;;;;;2.47;0.82;;;12.90;95.20;;;12.45;72.47;97386.78;5019604;28;20044;-46
2022/06/02 01:46:16;;;;;;;1.70;0.73;;;12.80;95.10;;;12.48;72.12;97394.59;5016149;28;20440;-44
2022/06/02 01:49:28;;;;;;;2.10;1.10;;;12.90;95.10;;;12.43;71.78;97397.41;5019001;28;20127;-43
2022/06/02 01:55:53;;;;;;;1.52;1.10;;;12.80;94.90;;;12.37;73.13;97395.91;5008768;28;20059;-45
2022/06/02 01:58:25;;;;;;;3.90;0.90;;;12.80;95.50;;;12.34;73.76;97403.97;5013978;28;20039;-45
2022/06/02 02:01:25;;;;;;;3.28;1.08;;;12.70;95.70;;;12.33;73.42;97399.63;5016082;28;20036;-45
2022/06/02 02:04:10;;;;;;;1.13;0.80;;;12.70;95.80;;;12.35;73.06;97399.56;5017965;28;20646;-45
2022/06/02 02:07:03;;;;;;;2.15;1.02;;;12.70;95.60;;;12.34;73.08;97397.84;5014228;28;20408;-44
2022/06/02 02:09:57;;;;;;;1.75;0.88;;;12.70;95.60;;;12.35;73.16;97404.84;5013296;28;20568;-44
2022/06/02 02:12:52;;;;;;;2.22;1.00;;;12.70;95.70;;;12.38;73.10;97410.88;5015687;28;20111;-45
2022/06/02 02:15:37;;;;;;;1.90;0.68;;;12.70;95.70;;;12.39;73.28;97409.91;5016074;28;20045;-45
2022/06/02 02:18:36;;;;;;;2.63;1.00;;;12.80;95.80;;;12.39;72.53;97415.22;5018334;28;20576;-44
2022/06/02 02:21:16;;;;;;;1.95;1.20;;;12.80;95.60;;;12.40;72.37;97414.28;5016415;28;20164;-44
2022/06/02 02:23:49;;;;;;;1.92;0.90;;;12.80;95.60;;;12.40;72.72;97414.28;5017725;28;20036;-43
2022/06/02 02:26:33;;;;;;;2.75;1.00;;;12.80;95.70;;;12.38;72.34;97410.88;5022257;28;20041;-45
2022/06/02 02:29:26;;;;;;;1.58;0.70;;;12.80;95.70;;;12.37;72.46;97411.78;5017585;28;20041;-44
2022/06/02 02:32:23;;;;;;;1.55;1.00;;;12.70;95.60;;;12.36;72.13;97419.78;5015650;28;20045;-43
2022/06/02 02:35:16;;;;;;;0.60;0.60;;;12.70;95.60;;;12.33;72.39;97410.22;5018699;28;20139;-43
2022/06/02 02:37:57;;;;;;;1.13;0.68;;;12.70;95.70;;;12.31;72.65;97411.19;5018937;28;20044;-44
2022/06/02 02:40:46;;;;;;;3.25;0.90;;;12.60;95.80;;;12.23;72.28;97415.00;5018269;28;20570;-43
2022/06/02 02:43:29;;;;;;;0.82;0.73;;;12.60;95.70;;;12.23;72.17;97416.81;5035104;28;20041;-45
2022/06/02 02:46:20;;;;;;;1.63;0.80;;;12.60;95.70;;;12.25;73.15;97419.41;5017159;28;20040;-45
2022/06/02 02:49:05;;;;;;;3.65;1.02;;;12.60;96.10;;;12.23;73.21;97432.69;5017040;28;20036;-47
2022/06/02 02:52:05;;;;;;;3.30;0.95;;;12.60;96.10;;;12.23;73.55;97428.25;5018290;28;21294;-45
2022/06/02 02:54:47;;;;;;;1.15;0.82;;;12.60;96.10;;;12.28;72.85;97417.47;5027485;28;22032;-47
2022/06/02 02:58:10;;;;;;;3.10;0.98;;;12.60;96.10;;;12.31;73.62;97422.63;5017793;28;20040;-43
2022/06/02 03:00:49;;;;;;;1.40;0.60;;;12.60;96.30;;;12.29;74.06;97418.31;5011436;28;20087;-44
2022/06/02 03:03:19;;;;;;;0.80;0.80;;;12.60;96.60;;;12.11;74.24;97394.41;5034058;28;20386;-44
2022/06/02 03:06:31;;;;;;;0.82;0.82;;;12.60;96.60;;;12.21;74.42;97421.31;5015971;28;20036;-47
2022/06/02 03:09:09;;;;;;;2.08;0.93;;;12.50;96.70;;;12.16;75.07;97425.94;5013959;28;20029;-44
2022/06/02 03:11:53;;;;;;;1.67;1.02;;;12.50;97.00;;;12.12;76.15;97424.34;5018777;28;20532;-44
2022/06/02 03:14:44;;;;;;;0.85;0.65;;;12.40;97.40;;;12.06;76.93;97420.19;5016347;28;20418;-44
2022/06/02 03:17:37;;;;;;;1.05;0.85;;;12.40;97.70;;;12.05;77.03;97428.19;5016162;28;22553;-45
2022/06/02 03:21:06;;;;;;;0.77;0.75;;;12.40;97.80;;;12.02;77.33;97421.22;5015011;28;20036;-44
2022/06/02 03:24:25;;;;;;;1.00;0.77;;;12.40;98.00;;;12.02;77.26;97427.41;5020553;28;20133;-45
2022/06/02 03:27:15;;;;;;;1.30;0.80;;;12.40;98.00;;;12.07;76.25;97436.91;5018778;28;20299;-46
2022/06/02 03:30:00;;;;;;;1.65;1.10;;;12.40;97.70;;;12.10;75.70;97432.34;5018729;28;20041;-44
2022/06/02 03:32:47;;;;;;;1.83;1.13;;;12.40;97.50;;;12.12;74.78;97433.13;5020942;28;20076;-44
2022/06/02 03:35:37;;;;;;;2.78;1.13;;;12.50;97.20;;;12.12;74.53;97432.28;5018591;28;20072;-45
2022/06/02 03:38:34;;;;;;;1.70;1.00;;;12.50;97.20;;;12.05;74.90;97434.31;5017805;28;20033;-43
2022/06/02 03:41:31;;;;;;;1.13;0.85;;;12.40;97.20;;;12.01;74.68;97438.88;5019409;28;20120;-45
2022/06/02 03:44:31;;;;;;;2.08;1.00;;;12.40;97.20;;;11.97;76.30;97441.69;5018771;28;20029;-44
2022/06/02 03:47:16;;;;;;;2.85;1.42;;;12.30;97.80;;;11.95;77.30;97439.16;5022041;28;20563;-46
2022/06/02 03:50:22;;;;;;;1.27;0.80;;;12.30;98.20;;;11.96;77.29;97453.22;5026407;28;20056;-43
2022/06/02 03:53:12;;;;;;;1.27;0.95;;;12.30;98.30;;;11.98;76.81;97443.44;5028077;28;20094;-48
2022/06/02 03:56:26;;;;;;;1.10;0.73;;;12.30;98.10;;;12.05;77.49;97451.97;5023254;28;20443;-45
2022/06/02 03:59:17;;;;;;;1.40;0.80;;;12.40;98.50;;;12.09;75.37;97454.41;5021554;28;21467;-44
2022/06/02 04:02:08;;;;;;;1.58;0.98;;;12.40;97.80;;;12.14;74.88;97444.50;5022300;28;20040;-44
2022/06/02 04:05:17;;;;;;;1.00;0.90;;;12.40;97.70;;;12.19;74.20;97447.81;5017592;28;20043;-43
2022/06/02 04:08:08;;;;;;;1.02;0.63;;;12.50;97.40;;;12.25;73.81;97446.69;5015684;28;20566;-48
2022/06/02 04:11:08;;;;;;;1.23;0.80;;;12.60;97.40;;;12.31;73.90;97451.72;5020590;28;20078;-44
2022/06/02 04:14:12;;;;;;;0.80;0.70;;;12.60;97.50;;;12.43;73.59;97441.53;5017212;28;20063;-46
2022/06/02 04:17:00;;;;;;;1.60;0.80;;;12.70;97.40;;;12.48;73.07;97443.03;5021364;28;20077;-46
2022/06/02 04:23:26;;;;;;;1.17;0.80;;;12.80;97.10;;;12.55;72.78;97436.56;5026269;28;20024;-47
2022/06/02 04:25:56;;;;;;;1.08;0.98;;;12.90;97.20;;;12.74;72.45;97454.25;5023116;28;20529;-48
2022/06/02 04:28:46;;;;;;;2.30;0.85;;;13.00;97.20;;;12.79;71.65;97450.50;5022993;28;20121;-45
2022/06/02 04:31:51;;;;;;;4.30;1.05;;;13.10;96.90;;;12.81;71.45;97461.00;5027505;28;20095;-47
2022/06/02 04:34:34;;;;;;;1.48;0.90;;;13.10;96.80;;;12.83;71.39;97459.16;5029646;28;20041;-43
2022/06/02 04:37:16;;;;;;;2.13;1.10;;;13.10;96.80;;;12.85;71.86;97467.00;5037136;28;20045;-43
2022/06/02 04:40:19;;;;;;;1.42;0.85;;;13.10;96.90;;;12.88;72.19;97458.94;5021697;28;20389;-46
2022/06/02 04:42:58;;;;;;;1.15;1.00;;;13.10;97.10;;;12.95;72.02;97468.31;5017040;28;20071;-45
2022/06/02 04:45:52;;;;;;;2.20;0.90;;;13.20;97.10;;;12.94;72.04;97475.41;5021429;28;20040;-45
2022/06/02 04:48:49;;;;;;;1.33;0.80;;;13.20;97.40;;;12.82;71.71;97451.28;5031586;28;20392;-46
2022/06/02 04:51:44;;;;;;;3.20;0.85;;;13.20;97.10;;;12.98;71.56;97463.75;5017973;28;20054;-43
2022/06/02 04:54:36;;;;;;;2.33;1.25;;;13.20;97.00;;;13.04;71.35;97467.03;5010065;28;20084;-43
2022/06/02 04:57:35;;;;;;;2.88;1.23;;;13.30;97.10;;;13.07;70.87;97467.75;5024233;28;20246;-43
2022/06/02 05:00:17;;;;;;;3.35;0.93;;;13.30;96.80;;;13.30;71.08;97464.03;5026497;28;20507;-43
2022/06/02 05:02:57;;;;;;;1.63;0.90;;;13.50;97.00;;;13.75;69.28;97446.06;5027302;28;20029;-44
2022/06/02 05:05:43;;;;;;;1.38;0.82;;;13.70;96.80;;;14.60;67.04;97466.53;5037838;28;20408;-47
2022/06/02 05:08:37;;;;;;;3.53;1.08;;;14.30;96.80;;;16.00;60.03;97480.16;5041293;28;20056;-44
2022/06/02 05:11:20;;;;;;;2.03;1.10;;;15.10;95.20;;;17.24;53.88;97473.69;5043143;28;20200;-46
2022/06/02 05:14:15;;;;;;;1.15;0.90;;;16.00;93.00;;;18.56;50.68;97471.41;5028177;28;20047;-45
2022/06/02 05:17:19;;;;;;;1.52;1.02;;;17.00;91.90;;;19.69;46.81;97475.09;5029267;28;20033;-46
2022/06/02 05:20:30;;;;;;;2.22;1.20;;;18.00;89.50;;;20.29;45.22;97484.91;5027513;28;20437;-47
2022/06/02 05:23:35;;;;;;;2.08;1.00;;;18.80;87.30;;;19.93;45.79;97473.28;5019462;28;20361;-46
2022/06/02 05:26:13;;;;;;;3.08;1.60;;;19.00;85.70;;;19.35;43.05;97489.06;5020258;28;20045;-47
2022/06/02 05:28:41;;;;;;;2.90;1.58;;;19.00;79.50;;;19.21;43.74;97495.38;5040984;28;20041;-45
2022/06/02 05:31:37;;;;;;;3.40;1.65;;;18.60;79.90;;;18.72;45.58;97471.16;5020262;28;20033;-47
2022/06/02 05:34:40;;;;;;;2.58;1.70;;;18.40;81.50;;;18.42;47.14;97501.69;5026917;28;20055;-47
2022/06/02 05:37:44;;;;;;;2.28;1.23;;;18.10;83.70;;;18.10;47.54;97505.53;5028641;28;20076;-44
2022/06/02 05:40:41;;;;;;;3.63;1.73;;;17.90;84.30;;;17.66;48.05;97493.25;5028461;28;20086;-47
2022/06/02 05:43:32;;;;;;;3.10;1.33;;;17.60;83.40;;;17.52;49.54;97503.94;5031616;28;20041;-46
2022/06/02 05:46:22;;;;;;;1.58;1.30;;;17.50;85.60;;;17.38;49.84;97499.47;5030964;28;20124;-45
2022/06/02 05:49:17;;;;;;;4.18;1.73;;;17.30;85.80;;;17.14;49.53;97504.53;5028451;28;20071;-47
2022/06/02 05:52:15;;;;;;;4.22;1.55;;;17.20;85.00;;;17.07;50.28;97508.53;5052445;28;20466;-46
2022/06/02 05:55:05;;;;;;;3.63;1.50;;;17.00;85.80;;;17.02;49.83;97508.81;5033416;28;20039;-45
2022/06/02 05:57:41;;;;;;;2.20;1.30;;;17.00;85.40;;;16.99;50.19;97508.97;5027838;28;20045;-46
2022/06/02 06:01:01;;;;;;;2.22;1.38;;;16.90;85.80;;;16.89;52.37;97507.84;5031308;28;20033;-46
2022/06/02 06:04:05;;;;;;;2.70;0.90;;;16.90;87.90;;;16.83;50.38;97514.38;5036931;28;20041;-43
2022/06/02 06:06:43;;;;;;;2.80;1.30;;;16.90;86.20;;;16.69;49.72;97507.22;5031791;28;20488;-46
2022/06/02 06:09:09;;;;;;;3.00;1.15;;;16.80;84.90;;;16.69;50.08;97504.56;5026626;28;20044;-47
2022/06/02 06:12:12;;;;;;;2.00;1.20;;;16.80;85.20;;;16.78;48.82;97513.78;5028933;28;20044;-47
2022/06/02 06:14:55;;;;;;;;;;;16.80;84.40;;;16.84;48.35;97512.59;5033835;28;20285;-46
2022/06/02 06:18:05;;;;;;;4.78;1.30;;;16.90;82.90;;;16.92;47.97;97516.50;5040406;28;19920;-47
2022/06/02 06:21:13;;;;;;;1.77;1.20;;;17.00;82.80;;;17.03;46.89;97513.19;5041278;28;20124;-39
2022/06/02 06:24:29;;;;;;;1.70;1.17;;;17.10;81.00;;;16.97;46.98;97519.72;5028578;28;20342;-42
2022/06/02 06:27:12;;;;;;;1.40;1.05;;;17.10;80.80;;;16.89;47.73;97516.69;5024604;28;20033;-42
2022/06/02 06:30:21;;;;;;;1.23;0.90;;;17.00;81.60;;;16.87;48.74;97517.72;5028838;28;20515;-42
2022/06/02 06:33:15;;;;;;;2.80;1.42;;;17.00;83.00;;;16.78;48.08;97521.78;5028258;28;20495;-43
2022/06/02 06:36:38;;;;;;;3.20;1.33;;;16.90;82.30;;;16.88;48.35;97520.28;5031202;28;20375;-43
2022/06/02 06:39:34;;;;;;;2.17;1.10;;;17.00;82.50;;;17.06;48.82;97520.97;5028553;28;20045;-44
2022/06/02 06:42:43;;;;;;;1.67;1.08;;;17.20;83.20;;;17.22;48.14;97520.88;5015281;28;20033;-43
2022/06/02 06:45:26;;;;;;;3.50;1.40;;;17.40;83.00;;;17.27;49.00;97517.97;5028051;28;20049;-45
2022/06/02 06:48:14;;;;;;;3.03;1.30;;;17.50;82.20;;;17.39;48.26;97516.31;5027539;28;20040;-46
2022/06/02 06:51:01;;;;;;;3.92;1.25;;;17.60;82.60;;;17.44;48.35;97514.22;5023207;28;20618;-44
2022/06/02 06:53:57;;;;;;;1.20;1.00;;;17.70;82.20;;;17.53;47.90;97518.97;5038378;28;20045;-43
2022/06/02 06:56:39;;;;;;;2.40;1.35;;;17.70;81.80;;;17.43;46.19;97517.84;5017849;28;20057;-43
2022/06/02 06:59:46;;;;;;;3.00;1.50;;;17.60;80.40;;;17.46;47.30;97520.31;5021579;28;20472;-40
2022/06/02 07:02:44;;;;;;;3.58;1.40;;;17.50;80.90;;;17.39;47.09;97518.97;5033257;22;20732;-41
2022/06/02 07:05:18;;;;;;;4.57;1.30;;;17.60;80.50;;;17.38;47.17;97522.63;4978899;28;20129;-41
2022/06/02 07:08:25;;;;;;;3.28;1.60;;;17.70;80.70;;;17.43;47.92;97529.38;4981233;28;20030;-41
2022/06/02 07:11:08;;;;;;;1.50;1.10;;;17.70;81.00;;;17.52;47.28;97527.94;4980283;28;20092;-41
2022/06/02 07:13:48;;;;;;;2.65;1.25;;;17.70;80.40;;;17.64;46.99;97531.63;4961094;28;20046;-41
2022/06/02 07:16:55;;;;;;;1.73;0.88;;;17.80;80.70;;;17.76;47.91;97525.50;4962926;28;20034;-39
2022/06/02 07:20:08;;;;;;;2.42;1.30;;;17.90;81.00;;;17.80;46.59;97532.38;4912651;29;20039;-41
2022/06/02 07:22:46;;;;;;;2.58;1.60;;;18.00;80.50;;;17.83;46.79;97532.16;4954541;28;20042;-40
2022/06/02 07:25:28;;;;;;;3.58;0.82;;;18.10;79.80;;;17.97;47.52;97533.97;4972986;28;20438;-40
2022/06/02 07:28:15;;;;;;;;;;;18.10;80.40;;;17.90;46.28;97532.66;4968737;28;20121;-40
2022/06/02 07:31:07;;;;;;;1.73;1.10;;;18.10;79.30;;;17.91;47.21;97527.25;4963073;28;20373;-40
2022/06/02 07:34:30;;;;;;;3.28;1.55;;;18.10;80.10;;;17.95;46.00;97522.56;4968639;28;20038;-41
2022/06/02 07:37:29;;;;;;;3.70;1.35;;;18.10;78.60;;;18.07;46.15;97520.88;4971920;28;20046;-41
2022/06/02 07:40:37;;;;;;;3.63;1.70;;;18.20;79.20;;;18.13;45.59;97520.50;4989222;28;20786;-41
2022/06/02 07:43:34;;;;;;;1.73;0.90;;;18.30;78.90;;;18.23;45.93;97516.28;4974802;28;20030;-41
2022/06/02 07:46:41;;;;;;;2.65;1.20;;;18.30;80.00;;;18.24;45.32;97523.31;4987051;28;20053;-41
2022/06/02 07:49:44;;;;;;;1.25;1.08;;;18.40;78.80;;;18.39;45.14;97520.56;4975227;28;20170;-40
2022/06/02 07:52:20;;;;;;;5.78;1.50;;;18.40;78.40;;;18.33;45.03;97523.66;4973969;28;20030;-40
2022/06/02 07:55:24;;;;;;;2.92;1.60;;;18.50;77.30;;;18.38;44.67;97525.06;4972151;28;20125;-42
2022/06/02 07:58:06;;;;;;;2.67;1.30;;;18.50;77.10;;;18.48;43.93;97520.84;4972045;28;20050;-41
2022/06/02 08:00:51;;;;;;;1.75;1.25;;;18.60;76.80;;;18.62;44.63;97524.38;4984559;28;20031;-40
2022/06/02 08:03:26;;;;;;;1.58;1.27;;;18.70;76.70;;;18.65;44.21;97524.19;4967889;28;20035;-40
2022/06/02 08:06:16;;;;;;;1.33;1.13;;;18.70;77.20;;;18.72;44.97;97532.63;4985924;28;21604;-40
2022/06/02 08:09:23;;;;;;;4.43;1.40;;;18.80;76.20;;;18.80;45.20;97530.28;4966847;28;20378;-41
2022/06/02 08:12:33;;;;;;;3.17;1.63;;;18.90;77.50;;;18.78;42.85;97522.38;4977445;28;20034;-41
2022/06/02 08:15:02;;;;;;;1.85;1.20;;;19.00;75.00;;;18.85;43.98;97522.84;4977532;28;20038;-39
2022/06/02 08:17:37;;;;;;;2.88;1.25;;;19.00;75.70;;;18.76;43.26;97524.28;4974657;28;20599;-37
2022/06/02 08:20:37;;;;;;;2.97;1.42;;;18.90;74.70;;;18.74;44.37;97531.56;4975060;28;20424;-39
2022/06/02 08:23:52;;;;;;;3.97;1.67;;;18.90;77.00;;;18.56;43.78;97527.47;4976507;28;20045;-38
2022/06/02 08:27:00;;;;;;;3.58;1.27;;;18.80;74.70;;;18.63;44.39;97534.13;4940302;28;20054;-39
2022/06/02 08:29:55;;;;;;;4.07;1.48;;;18.80;75.80;;;18.65;45.10;97533.03;4980257;28;20041;-39
2022/06/02 08:32:52;;;;;;;2.33;1.25;;;18.80;76.60;;;18.71;44.02;97526.41;4978448;28;20045;-39
2022/06/02 08:35:30;;;;;;;2.22;1.17;;;18.90;75.30;;;18.78;43.45;97529.53;4979727;28;20073;-39
2022/06/02 08:38:29;;;;;;;3.78;1.27;;;19.00;75.00;;;18.73;43.09;97529.84;4973801;28;20827;-38
2022/06/02 08:41:44;;;;;;;2.55;1.20;;;19.00;73.70;;;18.87;43.92;97528.94;4973629;28;20058;-39
2022/06/02 08:44:48;;;;;;;4.57;1.58;;;19.00;74.70;;;19.01;44.71;97536.00;4974622;28;20097;-40
2022/06/02 08:48:08;;;;;;;2.40;0.98;;;19.20;76.20;;;19.19;44.71;97526.72;4976094;28;20026;-40
2022/06/02 08:51:11;;;;;;;3.05;1.50;;;19.30;77.50;;;19.21;43.94;97530.13;4975184;28;20065;-39
2022/06/02 08:54:20;;;;;;;3.10;1.00;;;19.40;74.70;;;19.29;43.56;97526.94;4968219;28;20042;-38
2022/06/02 08:57:25;;;;;;;6.55;1.30;;;19.40;75.90;;;19.38;44.35;97533.44;4974236;28;20548;-37
2022/06/02 09:00:29;;;;;;;3.90;1.20;;;19.50;75.80;;;19.34;42.58;97529.25;4978344;28;20046;-38
2022/06/02 09:03:45;;;;;;;1.80;1.20;;;19.60;73.40;;;19.39;42.11;97532.47;4976842;28;20023;-38
2022/06/02 09:06:50;;;;;;;1.25;1.10;;;19.60;73.40;;;19.49;41.05;97535.34;4939411;28;20070;-38
2022/06/02 09:09:56;;;;;;;2.08;1.40;;;19.60;71.60;;;19.48;42.20;97526.47;4978716;28;20041;-38
2022/06/02 09:12:45;;;;;;;2.70;1.63;;;19.60;71.80;;;19.54;42.43;97527.84;4978331;28;20037;-37
2022/06/02 09:15:59;;;;;;;3.70;1.30;;;19.70;72.60;;;19.65;42.45;97530.63;4978458;28;20030;-38
2022/06/02 09:18:58;;;;;;;1.95;1.25;;;19.80;72.90;;;19.72;42.81;97536.38;4976295;28;20041;-38
2022/06/02 09:22:03;;;;;;;2.47;1.55;;;19.90;72.80;;;19.79;42.05;97535.88;4976055;28;20113;-37
2022/06/02 09:25:07;;;;;;;2.72;1.40;;;20.00;71.70;;;19.87;41.64;97526.44;4976508;28;20034;-37
2022/06/02 09:27:55;;;;;;;4.97;1.50;;;20.00;72.30;;;19.73;42.17;97528.28;4975487;28;20036;-38
2022/06/02 09:30:59;;;;;;;2.17;1.42;;;20.00;70.90;;;19.89;43.48;97532.53;4974144;28;20145;-38
2022/06/02 09:33:55;;;;;;;4.63;1.67;;;20.10;73.50;;;20.08;41.59;97537.38;4976638;28;20107;-38
2022/06/02 09:36:38;;;;;;;1.58;1.30;;;20.30;72.50;;;20.19;41.51;97534.78;4974550;28;20433;-38
2022/06/02 09:39:30;;;;;;;4.15;1.38;;;20.40;71.20;;;20.31;42.11;97541.03;4977225;28;20030;-38
2022/06/02 09:42:22;;;;;;;3.15;1.45;;;20.50;72.10;;;20.30;40.47;97534.84;4973977;28;20030;-38
2022/06/02 09:45:12;;;;;;;3.08;1.73;;;20.60;70.20;;;20.30;40.42;97536.66;4976413;28;20019;-38
2022/06/02 09:47:56;;;;;;;3.30;1.20;;;20.60;68.90;;;20.35;41.12;97534.47;4977544;28;20034;-38
2022/06/02 09:50:55;;;;;;;3.25;1.83;;;20.60;70.40;;;20.18;40.48;97535.75;4976642;28;20490;-38
2022/06/02 09:54:03;;;;;;;3.85;1.42;;;20.60;68.60;;;20.11;41.21;97529.97;4974152;28;20844;-38
2022/06/02 10:00:22;;;;;;;3.15;1.35;;;20.40;70.90;;;20.29;41.21;97510.84;4959557;28;20124;-38
2022/06/02 10:03:16;;;;;;;3.00;1.38;;;20.50;70.50;;;20.48;41.86;97524.56;4976365;28;20494;-38
2022/06/02 10:06:30;;;;;;;6.68;1.50;;;20.70;71.70;;;20.64;41.01;97529.66;4975450;28;20129;-38
2022/06/02 10:09:29;;;;;;;2.78;1.48;;;20.80;70.50;;;20.75;39.96;97524.31;4975152;28;20045;-38
2022/06/02 10:12:54;;;;;;;2.28;1.10;;;21.00;69.30;;;20.88;40.42;97513.50;4975917;28;20105;-38
2022/06/02 10:15:47;;;;;;;2.60;1.30;;;21.10;68.30;;;20.99;39.15;97507.31;4974875;28;20543;-38
2022/06/02 10:18:56;;;;;;;3.75;1.10;;;21.20;66.90;;;20.99;39.14;97507.31;4975886;28;20047;-38
2022/06/02 10:21:46;;;;;;;2.33;1.40;;;21.20;66.80;;;20.96;39.11;97496.81;4973769;28;20057;-37
2022/06/02 10:24:46;;;;;;;3.70;1.25;;;21.10;66.90;;;20.96;40.79;97497.69;4977375;28;20400;-38
2022/06/02 10:28:11;;;;;;;2.45;1.20;;;21.10;69.10;;;21.05;41.16;97498.81;4976093;28;20454;-38
2022/06/02 10:31:15;;;;;;;2.22;1.40;;;21.20;71.10;;;21.06;40.59;97502.34;4974916;28;20483;-37
2022/06/02 10:34:18;;;;;;;3.13;1.50;;;21.20;69.10;;;21.14;41.45;97502.59;4975369;28;20038;-38
2022/06/02 10:37:35;;;;;;;1.48;1.38;;;21.30;69.90;;;21.21;40.46;97503.84;4974395;28;20066;-39
2022/06/02 10:40:16;;;;;;;1.27;1.10;;;21.50;69.00;;;21.30;40.98;97496.88;4900611;29;20040;-38
2022/06/02 10:43:03;;;;;;;1.52;1.20;;;21.60;68.80;;;21.49;40.01;97496.31;4982219;28;20362;-40
2022/06/02 10:45:58;;;;;;;1.77;1.10;;;21.70;67.90;;;21.66;39.69;97502.97;4973531;28;20061;-38
2022/06/02 10:48:51;;;;;;;2.90;1.35;;;21.80;67.80;;;21.70;38.28;97504.47;4976860;28;20031;-39
2022/06/02 10:52:13;;;;;;;1.33;1.10;;;21.90;65.90;;;21.58;39.79;97505.44;4975855;28;20033;-39
2022/06/02 10:55:12;;;;;;;2.85;1.40;;;21.90;66.60;;;21.37;38.48;97506.13;4975693;28;20462;-39
2022/06/02 10:58:14;;;;;;;2.20;1.20;;;21.70;65.40;;;21.30;39.47;97500.44;4971860;28;20493;-38
2022/06/02 11:01:17;;;;;;;1.90;1.20;;;21.50;66.30;;;21.35;39.75;97495.56;4970186;28;20039;-41
2022/06/02 11:03:59;;;;;;;;;;;21.60;67.70;;;21.33;40.14;97499.31;4975422;28;20036;-40
2022/06/02 11:07:04;;;;;;;3.20;1.27;;;21.60;67.60;;;21.36;39.03;97491.03;4976711;28;19909;-42
2022/06/02 11:10:00;;;;;;;5.82;1.60;;;21.60;66.40;;;21.17;39.44;97488.94;4971665;28;20446;-41
2022/06/02 11:12:59;;;;;;;2.63;1.95;;;21.60;66.60;;;21.23;39.52;97480.44;4972069;28;20030;-41
2022/06/02 11:15:58;;;;;;;2.15;1.52;;;21.50;66.70;;;21.36;39.52;97477.63;4972309;28;20335;-42
2022/06/02 11:18:53;;;;;;;2.17;1.20;;;21.60;66.30;;;21.52;39.64;97482.66;4977491;28;20069;-41
2022/06/02 11:21:43;;;;;;;1.55;1.20;;;21.70;67.00;;;21.52;40.16;97456.66;4974426;28;20109;-39
2022/06/02 11:24:46;;;;;;;1.35;1.25;;;21.80;67.60;;;21.81;39.46;97485.66;4973651;28;20039;-40
2022/06/02 11:27:38;;;;;;;1.55;1.00;;;22.00;68.40;;;21.96;39.08;97472.78;4974189;28;20058;-40
2022/06/02 11:30:45;;;;;;;2.15;1.38;;;22.10;66.80;;;21.97;39.37;97470.97;4974748;28;20042;-43
2022/06/02 11:34:02;;;;;;;1.83;1.13;;;22.20;66.50;;;22.11;37.95;97465.31;4976861;28;20042;-39
2022/06/02 11:37:37;;;;;;;1.70;1.10;;;22.40;65.90;;;22.24;37.76;97460.63;4965558;28;20529;-37
2022/06/02 11:40:28;;;;;;;2.67;1.10;;;22.50;64.80;;;22.37;38.42;97462.31;4977541;28;20079;-39
2022/06/02 11:43:13;;;;;;;2.00;1.05;;;22.50;65.30;;;22.45;38.40;97468.75;4997783;28;20030;-41
2022/06/02 11:46:33;;;;;;;3.40;1.08;;;22.60;65.20;;;22.49;38.22;97462.13;4977411;28;20045;-39
2022/06/02 11:49:43;;;;;;;3.42;1.40;;;22.80;64.20;;;22.47;39.15;97452.50;4937479;28;20054;-39
2022/06/02 11:52:40;;;;;;;1.73;0.95;;;22.70;67.50;;;22.76;38.69;97447.31;4983524;28;20406;-40
2022/06/02 11:55:33;;;;;;;2.78;1.55;;;23.00;65.40;;;22.99;36.93;97456.09;4978998;28;20038;-40
2022/06/02 11:58:46;;;;;;;3.53;1.67;;;23.40;62.90;;;23.36;36.23;97444.81;4976755;28;20093;-40
2022/06/02 12:01:56;;;;;;;4.18;1.60;;;23.80;61.20;;;23.68;35.51;97443.78;4974218;28;20038;-40
2022/06/02 12:04:57;;;;;;;2.75;1.30;;;24.10;61.00;;;23.87;35.28;97436.75;4982119;28;20042;-40
2022/06/02 12:07:53;;;;;;;3.22;1.40;;;24.20;61.00;;;23.48;35.10;97445.56;4981295;28;20035;-40
2022/06/02 12:10:49;;;;;;;1.73;1.30;;;24.10;58.80;;;23.51;36.12;97439.06;4978596;28;20041;-41
2022/06/02 12:14:00;;;;;;;2.88;1.50;;;23.80;59.70;;;23.50;37.35;97448.13;4977241;28;20498;-41
2022/06/02 12:16:53;;;;;;;3.58;1.40;;;23.80;61.50;;;23.61;37.78;97442.63;4978040;28;20069;-41
2022/06/02 12:19:42;;;;;;;1.67;1.20;;;23.90;63.30;;;23.94;36.46;97451.38;4980537;28;20022;-40
2022/06/02 12:22:35;;;;;;;2.22;1.40;;;24.10;62.70;;;24.18;35.48;97451.00;4979979;28;20089;-41
2022/06/02 12:25:43;;;;;;;2.30;1.30;;;24.40;60.70;;;24.14;35.54;97447.72;4976845;28;20072;-41
2022/06/02 12:28:36;;;;;;;1.75;1.40;;;24.70;60.50;;;24.28;35.80;97454.56;4980183;28;20743;-40
2022/06/02 12:31:38;;;;;;;1.33;1.20;;;24.70;60.50;;;24.42;34.72;97442.47;4976999;28;20222;-41
2022/06/02 12:34:19;;;;;;;2.58;1.35;;;24.70;59.60;;;24.50;34.87;97433.69;4978138;28;20159;-42